Time;durP1;ratioP1;P1;durP2;ratioP2;P2;SDS_P1;SDS_P2;PMS_P1;PMS_P2;Temp;Humidity;BMP_temperature;BMP_pressure;BME280_temperature;BME280_humidity;BME280_pressure;Samples;Min_cycle;Max_cycle;Signal;HPM_P1;HPM_P2
2023/09/20 00:00:11;;;;;;;6.75;1.65;;;17.50;99.90;;;;;;4942764;29;20218;-79
2023/09/20 00:02:41;;;;;;;4.05;1.90;;;17.50;99.90;;;;;;4935794;29;20245;-79
2023/09/20 00:05:14;;;;;;;3.50;1.50;;;17.60;99.90;;;;;;4942078;29;20203;-79
2023/09/20 00:07:41;;;;;;;3.83;1.50;;;17.50;99.90;;;;;;4933557;29;20227;-80
2023/09/20 00:10:12;;;;;;;2.60;1.83;;;17.40;99.90;;;;;;4939753;29;20588;-80
2023/09/20 00:12:40;;;;;;;4.05;2.08;;;17.40;99.90;;;;;;4933102;29;20578;-78
2023/09/20 00:15:09;;;;;;;3.97;1.45;;;17.40;99.90;;;;;;4939510;29;20210;-78
2023/09/20 00:17:36;;;;;;;5.55;2.10;;;17.40;99.90;;;;;;4939561;29;20219;-79
2023/09/20 00:20:12;;;;;;;4.38;1.92;;;17.30;99.90;;;;;;4939746;29;20226;-80
2023/09/20 00:22:41;;;;;;;5.57;1.60;;;17.40;99.90;;;;;;4939146;29;20258;-79
2023/09/20 00:25:09;;;;;;;4.60;1.70;;;17.30;99.90;;;;;;4938584;29;20548;-79
2023/09/20 00:27:38;;;;;;;5.25;2.05;;;17.30;99.90;;;;;;4935312;29;20245;-80
2023/09/20 00:30:09;;;;;;;3.17;1.90;;;17.40;99.90;;;;;;4939599;29;20230;-79
2023/09/20 00:32:39;;;;;;;5.97;1.90;;;17.50;99.90;;;;;;4939673;29;20667;-80
2023/09/20 00:35:09;;;;;;;7.65;2.22;;;17.40;99.90;;;;;;4939519;29;20698;-78
2023/09/20 00:37:36;;;;;;;5.07;1.83;;;17.50;99.90;;;;;;4937877;29;20266;-79
2023/09/20 00:40:04;;;;;;;3.65;1.42;;;17.50;99.90;;;;;;4939533;29;20211;-80
2023/09/20 00:42:31;;;;;;;3.55;1.65;;;17.50;99.90;;;;;;4939609;29;20233;-80
2023/09/20 00:45:01;;;;;;;4.97;2.03;;;17.50;99.90;;;;;;4940234;29;20238;-79
2023/09/20 00:47:30;;;;;;;5.65;1.70;;;17.50;99.90;;;;;;4940826;29;20721;-80
2023/09/20 00:49:59;;;;;;;5.53;2.00;;;17.50;99.90;;;;;;4940590;29;20685;-79
2023/09/20 00:52:28;;;;;;;6.13;2.10;;;17.40;99.90;;;;;;4940587;29;20617;-80
2023/09/20 00:54:57;;;;;;;3.83;1.52;;;17.40;99.90;;;;;;4940309;29;20222;-80
2023/09/20 00:57:26;;;;;;;6.60;1.98;;;17.40;99.90;;;;;;4940573;29;20257;-80
2023/09/20 00:59:53;;;;;;;3.63;1.67;;;17.40;99.90;;;;;;4939564;29;20203;-79
2023/09/20 01:02:20;;;;;;;4.90;1.83;;;17.50;99.90;;;;;;4940022;29;20262;-79
2023/09/20 01:04:48;;;;;;;5.47;1.90;;;17.50;99.90;;;;;;4938842;29;20315;-80
2023/09/20 01:07:15;;;;;;;8.00;2.15;;;17.40;99.90;;;;;;4938699;29;20227;-80
2023/09/20 01:09:44;;;;;;;4.28;2.03;;;17.50;99.90;;;;;;4939581;29;20654;-79
2023/09/20 01:12:10;;;;;;;2.90;1.58;;;17.60;99.90;;;;;;4937874;29;20203;-78
2023/09/20 01:14:37;;;;;;;4.05;1.60;;;17.50;99.90;;;;;;4931916;29;20207;-79
2023/09/20 01:17:07;;;;;;;3.63;1.63;;;17.50;99.90;;;;;;4938745;29;20773;-79
2023/09/20 01:19:35;;;;;;;4.45;1.77;;;17.50;99.90;;;;;;4937583;29;20203;-79
2023/09/20 01:22:03;;;;;;;5.43;1.80;;;17.50;99.90;;;;;;4939304;29;20286;-79
2023/09/20 01:24:32;;;;;;;3.83;1.58;;;17.50;99.90;;;;;;4939461;29;20290;-79
2023/09/20 01:27:03;;;;;;;3.78;1.77;;;17.50;99.90;;;;;;4937516;29;20314;-79
2023/09/20 01:29:30;;;;;;;3.00;1.77;;;17.50;99.90;;;;;;4938148;29;20303;-80
2023/09/20 01:32:02;;;;;;;5.60;2.10;;;17.60;99.90;;;;;;4939055;29;20203;-79
2023/09/20 01:34:29;;;;;;;4.80;2.10;;;17.50;99.90;;;;;;4939314;29;20249;-80
2023/09/20 01:36:56;;;;;;;4.68;1.80;;;17.60;99.90;;;;;;4938963;29;20722;-79
2023/09/20 01:39:25;;;;;;;4.40;2.10;;;17.50;99.90;;;;;;4936654;29;20211;-80
2023/09/20 01:41:52;;;;;;;4.85;1.80;;;17.50;99.90;;;;;;4937892;29;20222;-78
2023/09/20 01:44:19;;;;;;;3.63;1.83;;;17.60;99.90;;;;;;4938503;29;20585;-79
2023/09/20 01:46:46;;;;;;;3.42;1.80;;;17.60;99.90;;;;;;4938549;29;20207;-79
2023/09/20 01:49:13;;;;;;;3.22;2.10;;;17.60;99.90;;;;;;4938791;29;20218;-80
2023/09/20 01:51:40;;;;;;;3.60;1.70;;;17.60;99.90;;;;;;4938044;29;20671;-80
2023/09/20 01:54:07;;;;;;;6.35;2.00;;;17.70;99.90;;;;;;4939014;29;20202;-79
2023/09/20 01:56:35;;;;;;;3.53;2.10;;;17.60;99.90;;;;;;4936796;29;20294;-80
2023/09/20 01:59:05;;;;;;;4.68;1.83;;;17.60;99.90;;;;;;4937962;29;20302;-78
2023/09/20 02:01:32;;;;;;;3.92;2.00;;;17.70;99.90;;;;;;4936197;29;20230;-78
2023/09/20 02:03:59;;;;;;;6.80;2.03;;;17.80;99.90;;;;;;4937941;29;20210;-79
2023/09/20 02:06:26;;;;;;;4.32;1.80;;;17.70;99.90;;;;;;4938451;29;20302;-80
2023/09/20 02:08:53;;;;;;;3.05;1.75;;;17.60;99.90;;;;;;4938254;29;20231;-79
2023/09/20 02:11:20;;;;;;;3.92;2.20;;;17.70;99.90;;;;;;4936663;29;20653;-79
2023/09/20 02:13:48;;;;;;;6.38;1.85;;;17.70;99.90;;;;;;4944539;29;20253;-79
2023/09/20 02:16:16;;;;;;;5.72;2.13;;;17.80;99.90;;;;;;4936205;29;20205;-79
2023/09/20 02:18:44;;;;;;;5.75;1.90;;;17.80;99.90;;;;;;4936192;29;20219;-80
2023/09/20 02:21:12;;;;;;;5.10;2.03;;;17.60;99.90;;;;;;4937825;29;20207;-79
2023/09/20 02:23:38;;;;;;;5.88;1.80;;;17.70;99.90;;;;;;4932259;29;20582;-79
2023/09/20 02:26:05;;;;;;;3.10;1.80;;;17.60;99.90;;;;;;4941733;29;20211;-78
2023/09/20 02:28:33;;;;;;;4.10;1.90;;;17.60;99.90;;;;;;4934198;29;20250;-78
2023/09/20 02:31:02;;;;;;;6.40;2.28;;;17.60;99.90;;;;;;4936125;29;20217;-79
2023/09/20 02:33:29;;;;;;;5.25;1.80;;;17.50;99.90;;;;;;4937508;29;20555;-79
2023/09/20 02:35:57;;;;;;;4.68;1.77;;;17.60;99.90;;;;;;4937743;29;20207;-79
2023/09/20 02:38:23;;;;;;;4.40;1.88;;;17.50;99.90;;;;;;4933945;29;20613;-79
2023/09/20 02:40:50;;;;;;;2.95;1.77;;;17.50;99.90;;;;;;4936241;29;20203;-80
2023/09/20 02:43:17;;;;;;;7.68;4.18;;;17.50;99.90;;;;;;4937561;29;20230;-80
2023/09/20 02:45:46;;;;;;;8.52;5.03;;;17.50;99.90;;;;;;4938896;29;20211;-79
2023/09/20 02:48:14;;;;;;;6.50;2.22;;;17.50;99.90;;;;;;4937523;29;20258;-77
2023/09/20 02:50:41;;;;;;;4.47;1.63;;;17.50;99.90;;;;;;4937973;29;20207;-79
2023/09/20 02:53:09;;;;;;;4.47;1.73;;;17.40;99.90;;;;;;4931827;29;20207;-79
2023/09/20 02:55:37;;;;;;;4.32;2.03;;;17.50;99.90;;;;;;4937203;29;20219;-78
2023/09/20 02:58:05;;;;;;;5.38;1.80;;;17.50;99.90;;;;;;4937693;29;20785;-79
2023/09/20 03:00:31;;;;;;;3.08;1.67;;;17.50;99.90;;;;;;4937523;29;20682;-80
2023/09/20 03:03:00;;;;;;;3.60;1.80;;;17.50;99.90;;;;;;4937976;29;20230;-79
2023/09/20 03:05:31;;;;;;;2.95;1.80;;;17.50;99.90;;;;;;4936804;29;20226;-79
2023/09/20 03:08:01;;;;;;;4.85;1.98;;;17.50;99.90;;;;;;4938930;29;20364;-80
2023/09/20 03:10:28;;;;;;;2.22;1.75;;;17.60;99.90;;;;;;4936101;29;20207;-79
2023/09/20 03:12:57;;;;;;;3.13;1.95;;;17.40;99.90;;;;;;4937423;29;20520;-80
2023/09/20 03:15:26;;;;;;;4.35;2.00;;;17.40;99.90;;;;;;4936185;29;20199;-79
2023/09/20 03:17:55;;;;;;;3.85;1.70;;;17.40;99.90;;;;;;4937759;29;20249;-79
2023/09/20 03:20:24;;;;;;;4.65;1.75;;;17.40;99.90;;;;;;4937702;29;20203;-77
2023/09/20 03:22:54;;;;;;;4.22;2.00;;;17.40;99.90;;;;;;4936040;29;20261;-78
2023/09/20 03:25:22;;;;;;;3.17;1.80;;;17.30;99.90;;;;;;4935597;29;20211;-79
2023/09/20 03:27:50;;;;;;;4.13;1.98;;;17.30;99.90;;;;;;4936420;29;20717;-79
2023/09/20 03:30:17;;;;;;;3.70;1.98;;;17.30;99.90;;;;;;4936411;29;20649;-79
2023/09/20 03:32:44;;;;;;;3.20;1.70;;;17.30;99.90;;;;;;4936950;29;20532;-79
2023/09/20 03:35:12;;;;;;;5.05;2.30;;;17.30;99.90;;;;;;4936520;29;20235;-79
2023/09/20 03:37:40;;;;;;;3.70;1.73;;;17.30;99.90;;;;;;4935734;29;20282;-76
2023/09/20 03:40:15;;;;;;;5.30;2.13;;;17.20;99.90;;;;;;4937312;29;20218;-78
2023/09/20 03:42:42;;;;;;;5.38;1.90;;;17.20;99.90;;;;;;4936958;29;20226;-78
2023/09/20 03:45:11;;;;;;;5.78;2.20;;;17.10;99.90;;;;;;4930788;29;20306;-79
2023/09/20 03:47:37;;;;;;;6.25;2.20;;;17.10;99.90;;;;;;4936518;29;20231;-79
2023/09/20 03:50:07;;;;;;;4.53;2.22;;;17.20;99.90;;;;;;4936066;29;20270;-79
2023/09/20 03:52:34;;;;;;;6.00;2.30;;;17.10;99.90;;;;;;4937094;29;20207;-78
2023/09/20 03:55:02;;;;;;;5.07;2.47;;;17.20;99.90;;;;;;4936840;29;20294;-78
2023/09/20 03:57:30;;;;;;;4.93;2.35;;;17.20;99.90;;;;;;4943082;29;20222;-80
2023/09/20 03:59:58;;;;;;;6.15;2.40;;;17.20;99.90;;;;;;4949444;28;20274;-79
2023/09/20 04:02:25;;;;;;;5.90;2.38;;;17.20;99.90;;;;;;4947048;29;20740;-79
2023/09/20 04:04:52;;;;;;;5.28;2.20;;;17.20;99.90;;;;;;4950956;29;20293;-79
2023/09/20 04:07:23;;;;;;;6.05;2.22;;;17.20;99.90;;;;;;4946519;29;20538;-79
2023/09/20 04:09:50;;;;;;;3.92;2.00;;;17.30;99.90;;;;;;4936542;29;20199;-77
2023/09/20 04:12:16;;;;;;;5.53;2.25;;;17.20;99.90;;;;;;4937382;29;20215;-77
2023/09/20 04:14:44;;;;;;;6.55;2.10;;;17.20;99.90;;;;;;4935609;29;20211;-79
2023/09/20 04:17:11;;;;;;;5.82;1.95;;;17.20;99.90;;;;;;4936675;29;20321;-79
2023/09/20 04:19:39;;;;;;;5.00;2.10;;;17.20;99.90;;;;;;4940065;29;20214;-79
2023/09/20 04:22:06;;;;;;;4.50;2.45;;;17.00;99.90;;;;;;4938254;29;20223;-79
2023/09/20 04:24:33;;;;;;;5.97;2.13;;;17.10;99.90;;;;;;4939944;29;20221;-78
2023/09/20 04:27:02;;;;;;;4.30;2.45;;;17.00;99.90;;;;;;4938709;29;20265;-78
2023/09/20 04:29:29;;;;;;;4.43;2.10;;;17.00;99.90;;;;;;4938529;29;20211;-78
2023/09/20 04:31:57;;;;;;;3.83;2.08;;;17.00;99.90;;;;;;4939618;29;20630;-79
2023/09/20 04:34:25;;;;;;;7.47;2.10;;;17.00;99.90;;;;;;4939716;29;20215;-79
2023/09/20 04:36:52;;;;;;;5.28;1.90;;;16.80;99.90;;;;;;4943288;29;20254;-80
2023/09/20 04:39:21;;;;;;;6.68;2.30;;;16.80;99.90;;;;;;4939497;29;20203;-79
2023/09/20 04:41:48;;;;;;;5.35;2.45;;;16.90;99.90;;;;;;4938292;29;20214;-79
2023/09/20 04:44:15;;;;;;;4.65;1.95;;;16.90;99.90;;;;;;4939528;29;20234;-79
2023/09/20 04:46:42;;;;;;;4.90;1.90;;;16.70;99.90;;;;;;4938109;29;20246;-79
2023/09/20 04:49:11;;;;;;;6.53;2.28;;;16.70;99.90;;;;;;4939782;29;20210;-79
2023/09/20 04:51:38;;;;;;;4.60;2.35;;;16.70;99.90;;;;;;4939345;29;20222;-79
2023/09/20 04:54:07;;;;;;;5.32;2.33;;;16.60;99.90;;;;;;4939289;29;20203;-78
2023/09/20 04:56:37;;;;;;;6.00;2.53;;;16.50;99.90;;;;;;4943919;29;20203;-79
2023/09/20 04:59:08;;;;;;;6.65;2.60;;;16.50;99.90;;;;;;4938305;29;20708;-78
2023/09/20 05:01:35;;;;;;;5.57;2.90;;;16.50;99.90;;;;;;4939232;29;20207;-79
2023/09/20 05:04:06;;;;;;;5.53;2.33;;;16.50;99.90;;;;;;4939647;29;20313;-79
2023/09/20 05:06:34;;;;;;;7.57;2.50;;;16.40;99.90;;;;;;4939119;29;20215;-79
2023/09/20 05:09:00;;;;;;;5.07;2.17;;;16.40;99.90;;;;;;4936817;29;20216;-79
2023/09/20 05:11:27;;;;;;;3.08;1.95;;;16.30;99.90;;;;;;4942701;29;20298;-79
2023/09/20 05:13:54;;;;;;;6.57;2.85;;;16.40;99.90;;;;;;4937402;29;20219;-79
2023/09/20 05:16:21;;;;;;;4.60;1.92;;;16.40;99.90;;;;;;4938401;29;20293;-79
2023/09/20 05:18:48;;;;;;;7.63;2.85;;;16.40;99.90;;;;;;4938580;29;20235;-77
2023/09/20 05:21:16;;;;;;;3.40;1.98;;;16.30;99.90;;;;;;4938258;29;20659;-79
2023/09/20 05:23:44;;;;;;;6.95;2.45;;;16.40;99.90;;;;;;4938873;29;20297;-79
2023/09/20 05:26:11;;;;;;;2.72;2.00;;;16.30;99.90;;;;;;4936993;29;20730;-79
2023/09/20 05:28:38;;;;;;;3.30;2.15;;;16.40;99.90;;;;;;4940454;29;20282;-79
2023/09/20 05:31:05;;;;;;;7.80;2.58;;;16.40;99.90;;;;;;4937026;29;20294;-78
2023/09/20 05:33:32;;;;;;;4.75;2.13;;;16.60;99.90;;;;;;4938013;29;20253;-79
2023/09/20 05:35:59;;;;;;;8.18;3.03;;;16.60;99.90;;;;;;4938378;29;20279;-78
2023/09/20 05:38:26;;;;;;;6.85;2.67;;;16.60;99.90;;;;;;4934159;29;20250;-78
2023/09/20 05:40:54;;;;;;;6.43;2.00;;;16.60;99.90;;;;;;4938204;29;20612;-78
2023/09/20 05:43:21;;;;;;;5.05;1.85;;;16.60;99.90;;;;;;4938503;29;20322;-78
2023/09/20 05:45:48;;;;;;;4.15;2.10;;;16.70;99.90;;;;;;4941630;29;20218;-77
2023/09/20 05:48:16;;;;;;;4.82;2.97;;;16.70;99.90;;;;;;4936993;29;20223;-77
2023/09/20 05:50:43;;;;;;;4.03;2.20;;;16.60;99.90;;;;;;4938140;29;20222;-79
2023/09/20 05:53:11;;;;;;;4.68;2.17;;;16.70;99.90;;;;;;4938900;29;20628;-78
2023/09/20 05:55:38;;;;;;;4.60;2.13;;;16.60;99.90;;;;;;4935689;29;20222;-78
2023/09/20 05:58:07;;;;;;;5.05;2.35;;;16.70;99.90;;;;;;4937454;29;20303;-79
2023/09/20 06:00:35;;;;;;;4.45;2.00;;;16.70;99.90;;;;;;4937200;29;20279;-78
2023/09/20 06:03:04;;;;;;;4.30;2.13;;;16.70;99.90;;;;;;4938222;29;20238;-78
2023/09/20 06:05:33;;;;;;;4.18;2.25;;;16.70;99.90;;;;;;4938168;29;20249;-78
2023/09/20 06:08:00;;;;;;;4.28;1.98;;;16.70;99.90;;;;;;4937115;29;20238;-78
2023/09/20 06:10:27;;;;;;;3.33;2.35;;;16.80;99.90;;;;;;4947011;29;20202;-78
2023/09/20 06:12:54;;;;;;;2.50;1.75;;;16.90;99.90;;;;;;4946056;29;20203;-79
2023/09/20 06:15:22;;;;;;;5.45;2.65;;;16.80;99.90;;;;;;4946884;29;20203;-78
2023/09/20 06:17:49;;;;;;;4.15;2.10;;;16.90;99.90;;;;;;4946260;29;20274;-78
2023/09/20 06:20:19;;;;;;;8.30;2.30;;;16.80;99.90;;;;;;4939955;29;20199;-78
2023/09/20 06:22:46;;;;;;;6.38;2.30;;;16.90;99.90;;;;;;4936604;29;20318;-79
2023/09/20 06:25:13;;;;;;;2.70;1.80;;;16.90;99.90;;;;;;4939117;29;20207;-79
2023/09/20 06:27:40;;;;;;;8.07;2.70;;;16.90;99.90;;;;;;4935991;29;20592;-79
2023/09/20 06:30:13;;;;;;;5.00;2.10;;;16.80;99.90;;;;;;4932863;29;20215;-79
2023/09/20 06:32:44;;;;;;;3.72;2.10;;;16.80;99.90;;;;;;4934360;29;20206;-78
2023/09/20 06:35:12;;;;;;;5.45;2.40;;;16.80;99.90;;;;;;4937496;29;20213;-78
2023/09/20 06:37:39;;;;;;;6.85;2.22;;;16.80;99.90;;;;;;4936881;29;20243;-78
2023/09/20 06:40:21;;;;;;;6.70;1.90;;;16.80;99.90;;;;;;4936868;29;20215;-79
2023/09/20 06:42:48;;;;;;;5.03;2.40;;;16.90;99.90;;;;;;4941422;29;20586;-79
2023/09/20 06:45:15;;;;;;;3.78;1.95;;;16.90;99.90;;;;;;4935513;29;20293;-79
2023/09/20 06:47:43;;;;;;;6.25;2.40;;;16.90;99.90;;;;;;4937690;29;20258;-78
2023/09/20 06:50:12;;;;;;;5.53;2.72;;;16.90;99.90;;;;;;4937593;29;20244;-80
2023/09/20 06:52:42;;;;;;;6.78;2.33;;;17.10;99.90;;;;;;4937448;29;20234;-79
2023/09/20 06:55:12;;;;;;;5.00;2.05;;;17.10;99.90;;;;;;4935084;29;20651;-79
2023/09/20 06:57:39;;;;;;;6.63;2.10;;;17.10;99.90;;;;;;4933650;29;20227;-79
2023/09/20 07:00:19;;;;;;;4.32;2.55;;;17.20;99.90;;;;;;4937436;29;20215;-78
2023/09/20 07:02:49;;;;;;;3.97;2.65;;;17.20;99.90;;;;;;4938748;29;20238;-79
2023/09/20 07:05:17;;;;;;;4.38;2.22;;;17.30;99.90;;;;;;4936220;29;20203;-77
2023/09/20 07:07:44;;;;;;;7.47;2.58;;;17.30;99.90;;;;;;4936132;29;20282;-78
2023/09/20 07:10:11;;;;;;;8.52;2.53;;;17.40;99.90;;;;;;4932055;29;20203;-79
2023/09/20 07:12:38;;;;;;;4.88;2.47;;;17.50;99.90;;;;;;4937515;29;20207;-78
2023/09/20 07:15:07;;;;;;;4.20;2.20;;;17.50;99.90;;;;;;4935083;29;20307;-78
2023/09/20 07:17:35;;;;;;;6.53;2.30;;;17.50;99.90;;;;;;4936561;29;20313;-78
2023/09/20 07:20:09;;;;;;;6.47;2.30;;;17.60;99.90;;;;;;4936916;29;20211;-78
2023/09/20 07:22:38;;;;;;;5.68;2.65;;;17.70;99.90;;;;;;4938672;29;20211;-78
2023/09/20 07:25:06;;;;;;;5.30;2.10;;;17.80;99.90;;;;;;4938546;29;20293;-78
2023/09/20 07:27:33;;;;;;;3.95;2.03;;;17.80;99.90;;;;;;4941869;29;20231;-76
2023/09/20 07:30:00;;;;;;;2.35;2.05;;;17.90;99.90;;;;;;4936757;29;20314;-79
2023/09/20 07:32:28;;;;;;;3.47;2.22;;;18.10;99.90;;;;;;4935886;29;20207;-78
2023/09/20 07:34:59;;;;;;;5.10;2.05;;;18.10;99.90;;;;;;4936358;29;20226;-78
2023/09/20 07:37:27;;;;;;;2.55;2.15;;;18.00;99.90;;;;;;4936751;29;20242;-78
2023/09/20 07:39:54;;;;;;;3.70;1.73;;;18.00;99.90;;;;;;4936165;29;20678;-79
2023/09/20 07:42:21;;;;;;;7.30;2.60;;;18.00;99.90;;;;;;4937100;29;20644;-78
2023/09/20 07:44:48;;;;;;;5.82;2.17;;;18.00;99.90;;;;;;4936590;29;20321;-78
2023/09/20 07:47:15;;;;;;;7.45;2.00;;;17.90;99.90;;;;;;4939726;29;20226;-79
2023/09/20 07:49:42;;;;;;;4.32;1.90;;;17.90;99.90;;;;;;4936566;29;20203;-78
2023/09/20 07:52:11;;;;;;;5.00;2.20;;;18.00;99.90;;;;;;4936926;29;20546;-78
2023/09/20 07:54:40;;;;;;;6.13;1.92;;;18.10;99.90;;;;;;4939808;29;20234;-78
2023/09/20 07:57:06;;;;;;;4.60;2.60;;;18.00;99.90;;;;;;4946017;29;20277;-77
2023/09/20 07:59:33;;;;;;;3.63;1.67;;;18.20;99.90;;;;;;4947547;29;20221;-79
2023/09/20 08:02:01;;;;;;;6.78;2.05;;;18.40;99.90;;;;;;4946515;29;20207;-79
2023/09/20 08:04:33;;;;;;;2.85;1.90;;;18.60;99.90;;;;;;4948050;29;20229;-78
2023/09/20 08:07:01;;;;;;;6.55;1.90;;;18.80;99.90;;;;;;4943011;29;20227;-79
2023/09/20 08:09:28;;;;;;;4.53;2.30;;;18.80;99.90;;;;;;4939821;29;20274;-78
2023/09/20 08:11:56;;;;;;;3.75;2.20;;;18.80;99.90;;;;;;4940974;29;20306;-79
2023/09/20 08:14:24;;;;;;;3.33;2.00;;;18.80;99.90;;;;;;4940352;29;20595;-78
2023/09/20 08:19:36;;;;;;;4.00;1.98;;;18.80;99.90;;;;;;4940475;29;20583;-77
2023/09/20 08:22:03;;;;;;;4.78;2.50;;;18.80;99.90;;;;;;4940217;29;20253;-79
2023/09/20 09:00:24;;;;;;;3.10;1.85;;;20.10;99.90;;;;;;4939807;29;20209;-79
2023/09/20 09:02:53;;;;;;;4.95;2.00;;;20.30;99.90;;;;;;4940317;29;20246;-78
2023/09/20 09:05:21;;;;;;;2.85;2.00;;;20.50;99.90;;;;;;4939278;29;20606;-79
2023/09/20 09:07:48;;;;;;;3.78;1.75;;;20.80;99.90;;;;;;4943007;29;20251;-79
2023/09/20 09:10:15;;;;;;;5.13;2.10;;;21.00;99.90;;;;;;4946784;29;20198;-78
2023/09/20 09:12:42;;;;;;;2.38;1.70;;;21.10;99.90;;;;;;4940419;29;20203;-78
2023/09/20 09:15:11;;;;;;;2.22;1.75;;;21.10;99.90;;;;;;4938653;29;20214;-78
2023/09/20 09:17:44;;;;;;;3.63;1.90;;;21.30;99.90;;;;;;4933579;29;20223;-76
2023/09/20 09:20:13;;;;;;;4.00;1.80;;;21.20;99.90;;;;;;4938750;29;20231;-77
2023/09/20 09:22:40;;;;;;;2.35;2.00;;;21.00;99.90;;;;;;4939003;29;20211;-78
2023/09/20 09:25:12;;;;;;;5.10;2.05;;;21.10;99.90;;;;;;4939670;29;20233;-78
2023/09/20 09:27:40;;;;;;;4.82;2.22;;;21.20;99.90;;;;;;4939076;29;20230;-79
2023/09/20 09:30:11;;;;;;;4.63;2.28;;;21.10;99.90;;;;;;4939736;29;20210;-78
2023/09/20 09:32:38;;;;;;;4.28;1.80;;;21.00;99.90;;;;;;4936280;29;20706;-79
2023/09/20 09:35:08;;;;;;;4.20;1.75;;;21.10;99.90;;;;;;4938796;29;20791;-78
2023/09/20 09:37:36;;;;;;;4.55;2.05;;;21.30;99.90;;;;;;4938353;29;20273;-79
2023/09/20 09:40:05;;;;;;;5.13;1.80;;;21.70;99.90;;;;;;4938789;29;20215;-79
2023/09/20 09:42:32;;;;;;;2.45;1.58;;;21.90;99.90;;;;;;4938544;29;20678;-79
2023/09/20 09:45:01;;;;;;;4.75;1.58;;;22.10;99.90;;;;;;4937828;29;20241;-79
2023/09/20 09:47:29;;;;;;;1.95;1.75;;;22.20;99.90;;;;;;4938708;29;20230;-78
2023/09/20 09:49:59;;;;;;;1.95;1.50;;;22.60;99.90;;;;;;4938896;28;20227;-79
2023/09/20 09:52:28;;;;;;;2.70;1.20;;;22.60;99.90;;;;;;4938352;29;20293;-79
2023/09/20 09:54:56;;;;;;;2.05;1.42;;;22.70;99.90;;;;;;4939128;29;20698;-78
2023/09/20 09:57:23;;;;;;;2.20;1.48;;;22.70;99.90;;;;;;4936563;29;20219;-77
2023/09/20 09:59:51;;;;;;;2.42;1.50;;;22.30;99.90;;;;;;4938027;29;20723;-79
2023/09/20 10:02:20;;;;;;;1.77;1.50;;;22.70;99.90;;;;;;4938229;29;20219;-78
2023/09/20 10:04:53;;;;;;;1.85;1.40;;;23.10;99.90;;;;;;4938479;29;20227;-79
2023/09/20 10:07:24;;;;;;;1.70;1.60;;;23.60;99.90;;;;;;4938368;29;20691;-78
2023/09/20 10:09:54;;;;;;;1.85;1.27;;;23.70;99.90;;;;;;4938562;29;20214;-79
2023/09/20 10:12:23;;;;;;;2.10;1.50;;;23.80;99.90;;;;;;4940397;29;20218;-80
2023/09/20 10:14:50;;;;;;;2.03;1.65;;;23.40;99.90;;;;;;4938156;29;20207;-79
2023/09/20 10:17:20;;;;;;;1.65;1.55;;;23.30;99.90;;;;;;4937212;29;20265;-79
2023/09/20 10:19:49;;;;;;;2.15;1.10;;;23.10;99.90;;;;;;4937627;29;20219;-77
2023/09/20 10:22:21;;;;;;;2.47;1.38;;;23.30;99.90;;;;;;4937485;29;20694;-78
2023/09/20 10:24:53;;;;;;;2.58;1.30;;;23.30;99.90;;;;;;4937861;29;20255;-78
2023/09/20 10:27:22;;;;;;;1.95;1.30;;;23.20;99.90;;;;;;4937620;29;20226;-79
2023/09/20 10:30:01;;;;;;;2.00;1.63;;;23.20;99.90;;;;;;4938214;29;20674;-79
2023/09/20 10:32:35;;;;;;;4.68;1.63;;;23.60;99.90;;;;;;4937482;29;20226;-79
2023/09/20 10:35:22;;;;;;;1.67;1.15;;;23.40;99.90;;;;;;4937799;29;20298;-79
2023/09/20 10:38:04;;;;;;;3.60;1.50;;;23.60;99.90;;;;;;4930813;29;20242;-79
2023/09/20 10:40:59;;;;;;;2.28;1.55;;;23.70;99.90;;;;;;4938239;29;20206;-77
2023/09/20 10:43:46;;;;;;;3.47;1.48;;;23.20;99.90;;;;;;4938022;29;20670;-78
2023/09/20 10:46:14;;;;;;;3.00;1.27;;;23.10;99.90;;;;;;4938097;29;20714;-78
2023/09/20 10:48:45;;;;;;;2.22;1.55;;;22.90;99.90;;;;;;4937344;29;20712;-79
2023/09/20 10:51:12;;;;;;;1.85;1.40;;;23.20;99.90;;;;;;4938199;29;20242;-79
2023/09/20 10:53:56;;;;;;;2.10;1.35;;;23.20;99.90;;;;;;4930161;29;20548;-78
2023/09/20 10:56:54;;;;;;;1.73;1.13;;;23.20;99.90;;;;;;4937728;29;20211;-79
2023/09/20 10:59:24;;;;;;;1.45;1.35;;;23.20;99.90;;;;;;4937890;29;20290;-79
2023/09/20 11:01:51;;;;;;;6.68;1.48;;;22.90;99.90;;;;;;4937937;29;20297;-79
2023/09/20 11:04:18;;;;;;;3.88;1.23;;;22.90;99.90;;;;;;4937442;29;20227;-78
2023/09/20 11:06:46;;;;;;;2.58;1.40;;;22.60;99.90;;;;;;4937112;29;20238;-79
2023/09/20 11:09:14;;;;;;;2.05;1.45;;;22.90;99.90;;;;;;4936965;29;20210;-79
2023/09/20 11:11:42;;;;;;;2.78;1.45;;;23.10;99.90;;;;;;4937531;29;20211;-77
2023/09/20 11:14:09;;;;;;;1.92;1.30;;;23.00;99.90;;;;;;4937882;29;20226;-78
2023/09/20 11:16:41;;;;;;;2.70;1.48;;;23.10;99.90;;;;;;4936069;28;20199;-79
2023/09/20 11:19:10;;;;;;;2.65;1.42;;;23.00;99.90;;;;;;4936959;29;20259;-79
2023/09/20 11:21:37;;;;;;;2.97;1.75;;;23.10;99.90;;;;;;4936922;29;20225;-78
2023/09/20 11:24:06;;;;;;;2.08;1.40;;;23.20;99.90;;;;;;4938286;29;20217;-80
2023/09/20 11:26:32;;;;;;;3.47;1.40;;;23.20;99.90;;;;;;4937182;29;20678;-79
2023/09/20 11:29:00;;;;;;;3.47;1.23;;;23.10;99.90;;;;;;4942038;29;20207;-79
2023/09/20 11:31:28;;;;;;;2.22;1.88;;;23.00;99.90;;;;;;4940970;29;20211;-79
2023/09/20 11:34:00;;;;;;;3.33;1.73;;;22.90;99.90;;;;;;4935717;29;20208;-80
2023/09/20 11:36:27;;;;;;;2.13;1.63;;;23.00;99.90;;;;;;4939232;29;20206;-80
2023/09/20 11:38:54;;;;;;;6.28;2.00;;;23.30;99.90;;;;;;4933648;29;20329;-80
2023/09/20 11:41:23;;;;;;;2.90;1.40;;;23.40;99.90;;;;;;4933807;29;20219;-80
2023/09/20 11:43:55;;;;;;;1.77;1.45;;;23.70;99.90;;;;;;4941271;29;20215;-79
2023/09/20 11:46:22;;;;;;;8.55;5.90;;;23.50;99.90;;;;;;4937268;29;20293;-79
2023/09/20 11:48:49;;;;;;;4.00;1.90;;;23.60;99.90;;;;;;4942196;29;20249;-79
2023/09/20 11:51:18;;;;;;;2.67;1.55;;;23.40;99.90;;;;;;4941769;29;20739;-79
2023/09/20 11:53:45;;;;;;;3.83;1.55;;;23.50;99.90;;;;;;4935192;29;20663;-79
2023/09/20 11:56:12;;;;;;;3.80;1.60;;;23.60;99.90;;;;;;4941652;29;20207;-79
2023/09/20 11:58:39;;;;;;;1.40;1.20;;;23.60;99.90;;;;;;4932595;29;20222;-78
2023/09/20 12:01:09;;;;;;;8.50;1.90;;;23.40;99.90;;;;;;4939382;29;20274;-79
2023/09/20 12:03:36;;;;;;;1.48;1.38;;;23.40;99.90;;;;;;4941731;29;20211;-79
2023/09/20 12:06:03;;;;;;;2.42;1.40;;;23.60;99.90;;;;;;4933690;29;20329;-79
2023/09/20 12:08:34;;;;;;;3.05;1.83;;;23.60;99.90;;;;;;4937092;29;20237;-80
2023/09/20 12:11:01;;;;;;;2.40;2.05;;;23.70;99.90;;;;;;4941323;29;20203;-80
2023/09/20 12:13:28;;;;;;;2.05;1.23;;;24.00;99.90;;;;;;4944730;29;20249;-80
2023/09/20 12:15:54;;;;;;;3.08;1.40;;;24.10;99.90;;;;;;4940968;29;20209;-79
2023/09/20 12:18:21;;;;;;;3.03;2.38;;;24.00;99.90;;;;;;4940474;29;20231;-80
2023/09/20 12:20:49;;;;;;;2.63;1.70;;;23.80;99.90;;;;;;4941221;29;20211;-79
2023/09/20 12:23:17;;;;;;;2.38;1.38;;;23.60;99.90;;;;;;4941187;29;20218;-80
2023/09/20 12:25:45;;;;;;;3.13;1.60;;;23.60;99.90;;;;;;4940331;29;20754;-80
2023/09/20 12:28:12;;;;;;;3.15;1.55;;;23.80;99.90;;;;;;4940774;29;20234;-80
2023/09/20 12:30:39;;;;;;;3.33;1.73;;;23.80;99.90;;;;;;4933255;29;20234;-80
2023/09/20 12:33:07;;;;;;;2.22;1.52;;;23.70;99.90;;;;;;4933338;29;20207;-80
2023/09/20 12:35:34;;;;;;;2.05;1.67;;;23.80;99.90;;;;;;4939976;29;20585;-79
2023/09/20 12:38:02;;;;;;;2.30;1.83;;;24.20;99.90;;;;;;4939543;29;20244;-79
2023/09/20 12:40:29;;;;;;;3.35;1.23;;;24.20;99.90;;;;;;4939131;29;20211;-80
2023/09/20 12:43:01;;;;;;;3.03;1.35;;;24.60;99.90;;;;;;4939725;29;20659;-80
2023/09/20 12:45:27;;;;;;;3.53;2.08;;;24.90;99.90;;;;;;4933080;29;20231;-80
2023/09/20 12:47:55;;;;;;;3.30;1.70;;;24.70;99.90;;;;;;4939313;29;20222;-78
2023/09/20 12:50:22;;;;;;;1.65;1.33;;;24.50;99.90;;;;;;4939501;29;20257;-79
2023/09/20 12:52:49;;;;;;;3.55;1.42;;;24.50;99.90;;;;;;4938953;29;20203;-78
2023/09/20 12:55:17;;;;;;;4.40;1.45;;;24.30;99.90;;;;;;4939538;29;20207;-78
2023/09/20 12:57:44;;;;;;;4.90;2.03;;;24.10;99.90;;;;;;4939535;29;20219;-79
2023/09/20 13:00:14;;;;;;;2.78;1.33;;;23.80;99.90;;;;;;4938617;29;20203;-79
2023/09/20 13:02:42;;;;;;;4.18;1.60;;;23.90;99.90;;;;;;4938557;29;20203;-80
2023/09/20 13:05:10;;;;;;;2.83;2.20;;;24.20;99.90;;;;;;4939431;29;20219;-80
2023/09/20 13:07:39;;;;;;;4.45;2.42;;;24.80;99.90;;;;;;4931426;29;20226;-80
2023/09/20 13:10:08;;;;;;;2.13;1.30;;;24.90;99.90;;;;;;4939061;29;20290;-80
2023/09/20 13:12:38;;;;;;;6.65;2.00;;;24.90;99.90;;;;;;4939293;29;20207;-79
2023/09/20 13:15:07;;;;;;;1.75;1.50;;;25.10;99.90;;;;;;4939739;29;20195;-79
2023/09/20 13:17:36;;;;;;;3.88;1.70;;;25.20;99.90;;;;;;4938227;29;20227;-78
2023/09/20 13:20:04;;;;;;;5.30;1.60;;;25.00;99.90;;;;;;4939301;29;20242;-79
2023/09/20 13:22:31;;;;;;;1.73;1.58;;;24.50;99.90;;;;;;4939621;29;20210;-79
2023/09/20 13:24:58;;;;;;;1.52;1.42;;;24.70;99.90;;;;;;4937305;29;20286;-83
2023/09/20 13:27:24;;;;;;;2.25;1.40;;;25.10;99.90;;;;;;4941012;29;20634;-79
2023/09/20 13:29:51;;;;;;;2.33;1.40;;;24.80;99.90;;;;;;4939292;29;20211;-79
2023/09/20 13:32:18;;;;;;;2.83;1.40;;;24.90;99.90;;;;;;4939492;29;20302;-79